Forside
METAR-TAF:

METAR-TAF

Lufthavne :

Maple Lake Municipal Airport

Maple Lake, Minnesota, USA

Breddekreds: 45-14-10N, længdekreds: 093-59-08W, højde: 313 m

Aktuelle vejr

Denne rapport blev lavet for 22 minutter siden, kl. 00:57 UTC
Vind 6 kt fra vestnordvest
Temperatur 16°C
Fugtighed 45%
Tryk 1014 hPa
Sigt: 16.1 km
Spredte skyer i en højde af 7000 ft

METAR: KMGG 220057Z AUTO 30006KT 10SM SCT070 16/04 A2995 RMK AO2 T01580040

Tid: 20:19 (01:19 UTC)


TAF: fraværende

Vejrobservationer og prognoser fra mere end 4000 lufthavne (METAR og TAF).

De gule og røde prikker repræsenterer de meteorologiske stationer.

Flyt musen over at se navnet på stationen.

Så klik over at se vejr observationer og prognoser.

At skifte det kort: Klik på de grønne knapper med et sort kors for at zoome ind; på den grønne knap med en bindestreg for at zoome ud; eller på de grønne pile for tilstødende kort.


METAR-TAF: